createdAt,value
2022-09-12T00:03:38.189Z,100160.75
2022-09-12T00:07:39.971Z,100148.53
2022-09-12T00:11:44.524Z,100167.00
2022-09-12T00:15:46.316Z,100156.75
2022-09-12T00:19:48.257Z,100148.63
2022-09-12T00:23:50.834Z,100164.19
2022-09-12T00:27:52.594Z,100155.81
2022-09-12T00:31:54.444Z,100163.91
2022-09-12T00:35:56.272Z,100167.22
2022-09-12T00:40:00.681Z,100144.53
2022-09-12T00:44:23.996Z,100153.53
2022-09-12T00:48:41.713Z,100162.00
2022-09-12T00:52:52.665Z,100155.94
2022-09-12T00:56:56.254Z,100144.16
2022-09-12T01:00:58.623Z,100149.63
2022-09-12T01:05:00.461Z,100172.47
2022-09-12T01:09:04.431Z,100142.25
2022-09-12T01:13:09.818Z,100146.22
2022-09-12T01:17:14.106Z,100143.47
2022-09-12T01:21:46.713Z,100148.09
2022-09-12T01:26:22.478Z,100151.25
2022-09-12T01:30:55.492Z,100149.34
2022-09-12T01:35:16.863Z,100158.47
2022-09-12T01:39:40.753Z,100153.50
2022-09-12T01:44:04.787Z,100146.59
2022-09-12T01:48:13.616Z,100142.25
2022-09-12T01:52:32.403Z,100135.00
2022-09-12T01:56:35.774Z,100122.44
2022-09-12T02:00:54.474Z,100126.28
2022-09-12T02:05:09.438Z,100121.38
2022-09-12T02:09:34.463Z,100141.13
2022-09-12T02:13:54.486Z,100132.91
2022-09-12T02:17:56.870Z,100135.44
2022-09-12T02:22:00.727Z,100132.53
2022-09-12T02:26:08.828Z,100107.28
2022-09-12T02:30:12.989Z,100128.00
2022-09-12T02:34:51.410Z,100132.84
2022-09-12T02:38:53.165Z,100132.06
2022-09-12T02:42:55.141Z,100124.81
2022-09-12T02:47:08.716Z,100132.19
2022-09-12T02:51:11.549Z,100122.25
2022-09-12T02:55:13.231Z,100131.00
2022-09-12T02:59:18.392Z,100117.81
2022-09-12T03:03:50.312Z,100120.97
2022-09-12T03:08:31.399Z,100132.19
2022-09-12T03:13:18.265Z,100135.78
2022-09-12T03:17:42.476Z,100136.16
2022-09-12T03:22:18.845Z,100129.94
2022-09-12T03:26:32.956Z,100135.53
2022-09-12T03:30:46.034Z,100118.41
2022-09-12T03:34:47.856Z,100136.22
2022-09-12T03:38:49.774Z,100116.63
2022-09-12T03:42:51.566Z,100133.56
2022-09-12T03:46:53.310Z,100134.88
2022-09-12T03:50:54.994Z,100122.84
2022-09-12T03:54:56.746Z,100120.69
2022-09-12T03:58:58.478Z,100120.97
2022-09-12T04:03:00.153Z,100125.25
2022-09-12T04:07:01.981Z,100112.06
2022-09-12T04:11:11.574Z,100142.13
2022-09-12T04:15:13.401Z,100125.66
2022-09-12T04:19:15.128Z,100138.03
2022-09-12T04:23:16.860Z,100129.66
2022-09-12T04:27:18.567Z,100123.88
2022-09-12T04:31:22.665Z,100128.50
2022-09-12T04:35:24.407Z,100125.66
2022-09-12T04:39:26.313Z,100134.50
2022-09-12T04:43:28.201Z,100132.25
2022-09-12T04:47:30.247Z,100133.91
2022-09-12T04:51:36.116Z,100145.91
2022-09-12T04:55:37.845Z,100131.25
2022-09-12T04:59:39.958Z,100150.19
2022-09-12T05:03:45.281Z,100136.88
2022-09-12T05:07:47.069Z,100161.28
2022-09-12T05:12:05.283Z,100148.41
2022-09-12T05:16:08.308Z,100159.06
2022-09-12T05:20:22.288Z,100147.19
2022-09-12T05:24:24.692Z,100142.25
2022-09-12T05:28:33.605Z,100142.06
2022-09-12T05:32:35.521Z,100175.06
2022-09-12T05:36:37.364Z,100150.50
2022-09-12T05:40:39.109Z,100148.38
2022-09-12T05:44:40.879Z,100147.59
2022-09-12T05:48:44.588Z,100155.38
2022-09-12T05:52:50.553Z,100158.22
2022-09-12T05:56:52.333Z,100151.63
2022-09-12T06:00:54.037Z,100132.88
2022-09-12T06:04:55.815Z,100149.81
2022-09-12T06:09:01.883Z,100141.53
2022-09-12T06:13:04.389Z,100131.06
2022-09-12T06:17:06.079Z,100150.06
2022-09-12T06:21:10.912Z,100139.16
2022-09-12T06:25:12.730Z,100147.75
2022-09-12T06:29:15.034Z,100153.34
2022-09-12T06:33:16.815Z,100153.31
2022-09-12T06:37:18.550Z,100137.03
2022-09-12T06:41:20.320Z,100127.91
2022-09-12T06:45:22.807Z,100121.03
2022-09-12T06:49:24.553Z,100140.66
2022-09-12T06:53:27.165Z,100135.03
2022-09-12T06:57:31.419Z,100145.69
2022-09-12T07:01:33.435Z,100143.44
2022-09-12T07:05:35.163Z,100147.69
2022-09-12T07:09:36.900Z,100141.94
2022-09-12T07:13:40.141Z,100147.22
2022-09-12T07:17:41.914Z,100153.91
2022-09-12T07:21:43.650Z,100146.22
2022-09-12T07:25:54.082Z,100159.47
2022-09-12T07:29:56.046Z,100153.84
2022-09-12T07:33:57.812Z,100165.38
2022-09-12T07:37:59.542Z,100149.97
2022-09-12T07:42:02.427Z,100140.16
2022-09-12T07:46:04.342Z,100145.78
2022-09-12T07:50:06.852Z,100146.69
2022-09-12T07:54:09.327Z,100144.97
2022-09-12T07:58:11.297Z,100143.09
2022-09-12T08:02:17.431Z,100147.78
2022-09-12T08:06:21.379Z,100145.56
2022-09-12T08:10:23.133Z,100148.09
2022-09-12T08:14:24.922Z,100145.19
2022-09-12T08:18:28.276Z,100155.06
2022-09-12T08:22:31.459Z,100149.56
2022-09-12T08:26:34.127Z,100145.78
2022-09-12T08:30:36.222Z,100154.56
2022-09-12T08:34:37.992Z,100148.00
2022-09-12T08:38:42.347Z,100140.94
2022-09-12T08:43:26.284Z,100146.66
2022-09-12T08:47:41.937Z,100148.06
2022-09-12T08:51:43.713Z,100135.22
2022-09-12T08:55:51.370Z,100141.75
2022-09-12T08:59:53.307Z,100138.81
2022-09-12T09:04:28.862Z,100153.16
2022-09-12T09:08:52.136Z,100134.19
2022-09-12T09:13:02.586Z,100126.03
2022-09-12T09:17:04.493Z,100141.34
2022-09-12T09:21:20.551Z,100127.84
2022-09-12T09:25:39.277Z,100119.66
2022-09-12T09:29:52.294Z,100117.78
2022-09-12T09:33:57.487Z,100104.09
2022-09-12T09:38:13.115Z,100103.63
2022-09-12T09:42:26.707Z,100112.38
2022-09-12T09:46:28.592Z,100106.75
2022-09-12T09:50:30.543Z,100110.78
2022-09-12T09:54:45.250Z,100105.00
2022-09-12T09:58:48.831Z,100112.78
2022-09-12T10:03:14.004Z,100104.69
2022-09-12T10:07:20.157Z,100096.72
2022-09-12T10:11:27.135Z,100100.44
2022-09-12T10:15:30.759Z,100088.44
2022-09-12T10:19:41.295Z,100086.88
2022-09-12T10:23:43.472Z,100096.97
2022-09-12T10:27:45.590Z,100099.75
2022-09-12T10:31:59.041Z,100085.06
2022-09-12T10:36:02.827Z,100072.59
2022-09-12T10:40:22.008Z,100074.97
2022-09-12T10:44:30.840Z,100074.16
2022-09-12T10:48:36.237Z,100064.06
2022-09-12T10:52:38.176Z,100059.72
2022-09-12T10:57:17.838Z,100061.22
2022-09-12T11:01:49.870Z,100046.41
2022-09-12T11:05:55.195Z,100045.34
2022-09-12T11:10:24.430Z,100038.56
2022-09-12T11:14:44.892Z,100049.19
2022-09-12T11:19:14.812Z,100053.22
2022-09-12T11:24:09.661Z,100048.25
2022-09-12T11:28:32.773Z,100055.88
2022-09-12T11:33:12.755Z,100046.06
2022-09-12T11:37:45.652Z,100043.41
2022-09-12T11:41:55.547Z,100034.69
2022-09-12T11:46:10.328Z,100037.53
2022-09-12T11:50:28.683Z,100035.16
2022-09-12T11:54:37.119Z,100032.59
2022-09-12T11:58:39.067Z,100028.03
2022-09-12T12:02:56.108Z,100026.88
2022-09-12T12:07:07.801Z,100042.84
2022-09-12T12:11:10.934Z,100033.91
2022-09-12T12:15:14.817Z,100036.31
2022-09-12T12:19:16.519Z,100043.03
2022-09-12T12:24:03.210Z,100027.72
2022-09-12T12:28:06.406Z,100013.91
2022-09-12T12:32:08.103Z,100025.00
2022-09-12T12:36:11.081Z,100010.34
2022-09-12T12:40:25.681Z,100024.13
2022-09-12T12:44:45.738Z,100021.84
2022-09-12T12:49:03.216Z,100015.47
2022-09-12T12:53:07.007Z,100000.09
2022-09-12T12:57:37.469Z,100001.19
2022-09-12T13:01:41.238Z,99993.94
2022-09-12T13:05:46.210Z,99988.84
2022-09-12T13:09:48.756Z,99965.00
2022-09-12T13:13:53.379Z,99972.94
2022-09-12T13:17:59.263Z,99969.81
2022-09-12T13:22:09.297Z,99977.63
2022-09-12T13:26:14.713Z,99986.69
2022-09-12T13:30:16.551Z,99973.59
2022-09-12T13:34:33.607Z,99967.47
2022-09-12T13:38:59.206Z,99966.81
2022-09-12T13:43:42.127Z,99948.56
2022-09-12T13:47:48.937Z,99960.47
2022-09-12T13:52:10.143Z,99955.09
2022-09-12T13:56:17.637Z,99948.31
2022-09-12T14:00:20.222Z,99964.94
2022-09-12T14:04:45.044Z,99952.28
2022-09-12T14:08:48.260Z,99943.75
2022-09-12T14:12:52.887Z,99952.50
2022-09-12T14:16:55.091Z,99939.50
2022-09-12T14:21:01.124Z,99942.06
2022-09-12T14:25:08.376Z,99948.22
2022-09-12T14:29:13.586Z,99947.16
2022-09-12T14:33:19.221Z,99930.81
2022-09-12T14:37:21.217Z,99941.44
2022-09-12T14:41:29.631Z,99920.94
2022-09-12T14:45:37.885Z,99934.53
2022-09-12T14:49:39.707Z,99930.28
2022-09-12T14:53:48.755Z,99919.06
2022-09-12T14:58:22.519Z,99922.25
2022-09-12T15:02:27.616Z,99914.50
2022-09-12T15:06:37.092Z,99912.63
2022-09-12T15:10:39.819Z,99910.69
2022-09-12T15:14:41.601Z,99894.34
2022-09-12T15:18:43.616Z,99904.56
2022-09-12T15:22:45.405Z,99911.88
2022-09-12T15:26:47.660Z,99912.28
2022-09-12T15:30:51.368Z,99908.53
2022-09-12T15:34:53.809Z,99903.13
2022-09-12T15:39:00.917Z,99904.69
2022-09-12T15:43:03.430Z,99902.38
2022-09-12T15:47:05.771Z,99906.84
2022-09-12T15:51:15.974Z,99912.59
2022-09-12T15:55:20.491Z,99905.34
2022-09-12T15:59:22.301Z,99914.13
2022-09-12T16:03:26.777Z,99910.88
2022-09-12T16:07:28.531Z,99910.41
2022-09-12T16:11:30.478Z,99902.28
2022-09-12T16:15:32.228Z,99917.19
2022-09-12T16:19:34.095Z,99888.25
2022-09-12T16:23:35.897Z,99888.66
2022-09-12T16:27:37.872Z,99890.44
2022-09-12T16:31:40.155Z,99884.75
2022-09-12T16:35:42.470Z,99886.41
2022-09-12T16:39:44.453Z,99877.84
2022-09-12T16:43:46.535Z,99877.63
2022-09-12T16:47:48.302Z,99879.66
2022-09-12T16:51:50.340Z,99861.28
2022-09-12T16:55:52.165Z,99862.31
2022-09-12T17:00:00.967Z,99870.50
2022-09-12T17:04:03.019Z,99867.47
2022-09-12T17:08:05.245Z,99866.03
2022-09-12T17:12:10.522Z,99860.13
2022-09-12T17:16:15.630Z,99858.50
2022-09-12T17:20:18.054Z,99851.38
2022-09-12T17:24:20.159Z,99845.06
2022-09-12T17:28:22.170Z,99860.97
2022-09-12T17:32:25.167Z,99849.97
2022-09-12T17:36:27.763Z,99857.31
2022-09-12T17:40:55.655Z,99842.84
2022-09-12T17:44:58.473Z,99856.91
2022-09-12T17:49:01.003Z,99845.88
2022-09-12T17:53:02.884Z,99843.66
2022-09-12T17:57:13.671Z,99860.94
2022-09-12T18:11:43.161Z,99861.31
2022-09-12T18:15:45.181Z,99864.56
2022-09-12T18:19:52.848Z,99865.00
2022-09-12T18:24:00.738Z,99868.22
2022-09-12T18:28:09.083Z,99855.75
2022-09-12T18:32:13.716Z,99866.53
2022-09-12T18:36:20.199Z,99868.72
2022-09-12T18:40:22.176Z,99866.59
2022-09-12T18:44:24.097Z,99866.44
2022-09-12T18:48:27.446Z,99873.91
2022-09-12T18:52:29.495Z,99877.47
2022-09-12T18:56:33.068Z,99876.59
2022-09-12T19:00:40.478Z,99879.56
2022-09-12T19:04:42.434Z,99885.19
2022-09-12T19:08:44.333Z,99874.41
2022-09-12T19:12:48.298Z,99875.41
2022-09-12T19:16:50.993Z,99882.63
2022-09-12T19:20:56.166Z,99876.47
2022-09-12T19:25:00.679Z,99874.97
2022-09-12T19:29:03.038Z,99877.94
2022-09-12T19:33:05.251Z,99877.25
2022-09-12T19:37:07.392Z,99858.72
2022-09-12T19:41:21.795Z,99877.34
2022-09-12T19:45:30.651Z,99874.81
2022-09-12T19:49:41.839Z,99883.69
2022-09-12T19:53:43.835Z,99867.41
2022-09-12T19:57:48.351Z,99864.38
2022-09-12T20:01:50.227Z,99878.13
2022-09-12T20:05:52.125Z,99859.94
2022-09-12T20:09:55.066Z,99870.16
2022-09-12T20:13:56.854Z,99862.81
2022-09-12T20:17:58.767Z,99882.94
2022-09-12T20:22:00.520Z,99886.66
2022-09-12T20:26:02.273Z,99879.38
2022-09-12T20:30:04.961Z,99896.84
2022-09-12T20:34:06.977Z,99876.41
2022-09-12T20:38:08.736Z,99868.97
2022-09-12T20:42:10.608Z,99877.28
2022-09-12T20:46:12.376Z,99880.84
2022-09-12T20:50:14.813Z,99882.91
2022-09-12T20:54:16.603Z,99882.28
2022-09-12T20:58:19.393Z,99875.44
2022-09-12T21:02:21.170Z,99874.16
2022-09-12T21:06:23.291Z,99885.31
2022-09-12T21:10:25.096Z,99873.25
2022-09-12T21:14:26.885Z,99873.03
2022-09-12T21:18:28.881Z,99866.13
2022-09-12T21:22:30.731Z,99874.53
2022-09-12T21:26:32.636Z,99875.41
2022-09-12T21:30:34.339Z,99867.25
2022-09-12T21:34:36.072Z,99865.72
2022-09-12T21:38:37.890Z,99876.94
2022-09-12T21:42:39.566Z,99864.75
2022-09-12T21:46:41.406Z,99858.63
2022-09-12T21:50:43.279Z,99868.09
2022-09-12T21:54:46.213Z,99861.97
2022-09-12T21:58:47.924Z,99855.78
2022-09-12T22:02:49.717Z,99857.03
2022-09-12T22:06:51.430Z,99855.16
2022-09-12T22:10:53.194Z,99841.34
2022-09-12T22:14:58.022Z,99839.09
2022-09-12T22:18:59.711Z,99831.47
2022-09-12T22:23:24.420Z,99831.41
2022-09-12T22:27:26.643Z,99849.84
2022-09-12T22:31:28.756Z,99841.53
2022-09-12T22:35:30.917Z,99836.25
2022-09-12T22:39:32.785Z,99831.97
2022-09-12T22:43:35.052Z,99823.03
2022-09-12T22:47:36.765Z,99810.38
2022-09-12T22:51:38.999Z,99806.13
2022-09-12T22:55:43.310Z,99805.38
2022-09-12T22:59:45.064Z,99798.97
2022-09-12T23:03:46.921Z,99796.97
2022-09-12T23:07:48.755Z,99798.97
2022-09-12T23:11:51.824Z,99796.63
2022-09-12T23:16:00.290Z,99785.50
2022-09-12T23:20:02.943Z,99791.84
2022-09-12T23:24:04.828Z,99792.72
2022-09-12T23:28:06.524Z,99784.31
2022-09-12T23:32:08.280Z,99776.13
2022-09-12T23:36:14.203Z,99777.09
2022-09-12T23:40:16.215Z,99785.66
2022-09-12T23:44:18.033Z,99772.38
2022-09-12T23:48:20.311Z,99772.22
2022-09-12T23:52:22.060Z,99764.97
2022-09-12T23:56:24.131Z,99759.03
